sensor_id;sensor_type;location;lat;lon;timestamp;P1;durP1;ratioP1;P2;durP2;ratioP2
14040;SDS011;7095;51.388;6.196;2024-01-30T00:02:12;22.87;;;15.23;;
14040;SDS011;7095;51.388;6.196;2024-01-30T00:04:41;22.73;;;14.87;;
14040;SDS011;7095;51.388;6.196;2024-01-30T00:07:10;29.63;;;15.00;;
14040;SDS011;7095;51.388;6.196;2024-01-30T00:09:38;23.50;;;14.77;;
14040;SDS011;7095;51.388;6.196;2024-01-30T00:12:07;27.13;;;14.63;;
14040;SDS011;7095;51.388;6.196;2024-01-30T00:14:36;21.13;;;15.27;;
14040;SDS011;7095;51.388;6.196;2024-01-30T00:17:06;24.40;;;15.40;;
14040;SDS011;7095;51.388;6.196;2024-01-30T00:19:35;23.93;;;16.60;;
14040;SDS011;7095;51.388;6.196;2024-01-30T00:22:03;27.27;;;15.50;;
14040;SDS011;7095;51.388;6.196;2024-01-30T00:24:32;23.73;;;14.73;;
14040;SDS011;7095;51.388;6.196;2024-01-30T00:27:00;29.57;;;14.60;;
14040;SDS011;7095;51.388;6.196;2024-01-30T00:29:29;24.90;;;14.83;;
14040;SDS011;7095;51.388;6.196;2024-01-30T00:32:00;24.73;;;14.70;;
14040;SDS011;7095;51.388;6.196;2024-01-30T00:34:30;19.60;;;14.47;;
14040;SDS011;7095;51.388;6.196;2024-01-30T00:37:00;27.50;;;15.20;;
14040;SDS011;7095;51.388;6.196;2024-01-30T00:39:28;27.97;;;15.37;;
14040;SDS011;7095;51.388;6.196;2024-01-30T00:41:56;25.37;;;14.37;;
14040;SDS011;7095;51.388;6.196;2024-01-30T00:44:25;22.70;;;14.43;;
14040;SDS011;7095;51.388;6.196;2024-01-30T00:46:54;20.90;;;15.73;;
14040;SDS011;7095;51.388;6.196;2024-01-30T00:49:22;22.13;;;15.70;;
14040;SDS011;7095;51.388;6.196;2024-01-30T00:51:52;23.87;;;15.63;;
14040;SDS011;7095;51.388;6.196;2024-01-30T00:54:21;24.00;;;14.97;;
14040;SDS011;7095;51.388;6.196;2024-01-30T00:56:50;20.97;;;14.03;;
14040;SDS011;7095;51.388;6.196;2024-01-30T00:59:18;19.00;;;14.10;;
14040;SDS011;7095;51.388;6.196;2024-01-30T01:01:47;25.53;;;14.73;;
14040;SDS011;7095;51.388;6.196;2024-01-30T01:04:15;23.77;;;14.07;;
14040;SDS011;7095;51.388;6.196;2024-01-30T01:06:44;31.27;;;15.07;;
14040;SDS011;7095;51.388;6.196;2024-01-30T01:09:14;21.23;;;13.33;;
14040;SDS011;7095;51.388;6.196;2024-01-30T01:11:43;22.73;;;15.53;;
14040;SDS011;7095;51.388;6.196;2024-01-30T01:14:11;24.83;;;14.83;;
14040;SDS011;7095;51.388;6.196;2024-01-30T01:16:40;25.67;;;15.20;;
14040;SDS011;7095;51.388;6.196;2024-01-30T01:19:09;26.57;;;15.60;;
14040;SDS011;7095;51.388;6.196;2024-01-30T01:21:37;25.70;;;16.10;;
14040;SDS011;7095;51.388;6.196;2024-01-30T01:24:06;22.13;;;15.20;;
14040;SDS011;7095;51.388;6.196;2024-01-30T01:26:36;27.23;;;15.00;;
14040;SDS011;7095;51.388;6.196;2024-01-30T01:29:05;28.00;;;15.30;;
14040;SDS011;7095;51.388;6.196;2024-01-30T01:31:36;23.63;;;13.57;;
14040;SDS011;7095;51.388;6.196;2024-01-30T01:34:10;20.47;;;15.23;;
14040;SDS011;7095;51.388;6.196;2024-01-30T01:36:39;21.97;;;14.93;;
14040;SDS011;7095;51.388;6.196;2024-01-30T01:39:08;26.27;;;15.37;;
14040;SDS011;7095;51.388;6.196;2024-01-30T01:41:39;22.90;;;15.17;;
14040;SDS011;7095;51.388;6.196;2024-01-30T01:44:07;23.40;;;15.30;;
14040;SDS011;7095;51.388;6.196;2024-01-30T01:46:36;25.93;;;15.40;;
14040;SDS011;7095;51.388;6.196;2024-01-30T01:49:05;26.93;;;16.43;;
14040;SDS011;7095;51.388;6.196;2024-01-30T01:51:35;26.77;;;15.40;;
14040;SDS011;7095;51.388;6.196;2024-01-30T01:54:04;24.80;;;15.43;;
14040;SDS011;7095;51.388;6.196;2024-01-30T01:56:34;27.13;;;15.37;;
14040;SDS011;7095;51.388;6.196;2024-01-30T01:59:06;23.30;;;14.33;;
14040;SDS011;7095;51.388;6.196;2024-01-30T02:01:36;23.93;;;14.97;;
14040;SDS011;7095;51.388;6.196;2024-01-30T02:04:06;22.60;;;15.57;;
14040;SDS011;7095;51.388;6.196;2024-01-30T02:06:35;27.33;;;15.07;;
14040;SDS011;7095;51.388;6.196;2024-01-30T02:09:04;20.10;;;14.13;;
14040;SDS011;7095;51.388;6.196;2024-01-30T02:11:34;22.30;;;13.70;;
14040;SDS011;7095;51.388;6.196;2024-01-30T02:14:06;21.57;;;14.03;;
14040;SDS011;7095;51.388;6.196;2024-01-30T02:16:35;21.27;;;14.70;;
14040;SDS011;7095;51.388;6.196;2024-01-30T02:19:04;25.47;;;14.13;;
14040;SDS011;7095;51.388;6.196;2024-01-30T02:21:36;22.87;;;13.73;;
14040;SDS011;7095;51.388;6.196;2024-01-30T02:24:04;24.67;;;14.67;;
14040;SDS011;7095;51.388;6.196;2024-01-30T02:26:33;20.07;;;14.17;;
14040;SDS011;7095;51.388;6.196;2024-01-30T02:29:02;19.73;;;14.50;;
14040;SDS011;7095;51.388;6.196;2024-01-30T02:31:31;19.43;;;13.90;;
14040;SDS011;7095;51.388;6.196;2024-01-30T02:33:59;18.67;;;13.63;;
14040;SDS011;7095;51.388;6.196;2024-01-30T02:36:28;21.73;;;13.33;;
14040;SDS011;7095;51.388;6.196;2024-01-30T02:38:58;29.70;;;14.03;;
14040;SDS011;7095;51.388;6.196;2024-01-30T02:41:27;21.77;;;13.47;;
14040;SDS011;7095;51.388;6.196;2024-01-30T02:43:55;20.70;;;14.57;;
14040;SDS011;7095;51.388;6.196;2024-01-30T02:46:22;25.17;;;15.00;;
14040;SDS011;7095;51.388;6.196;2024-01-30T02:48:51;22.10;;;13.97;;
14040;SDS011;7095;51.388;6.196;2024-01-30T02:51:20;22.80;;;14.70;;
14040;SDS011;7095;51.388;6.196;2024-01-30T02:53:48;25.53;;;14.60;;
14040;SDS011;7095;51.388;6.196;2024-01-30T02:56:18;20.70;;;13.20;;
14040;SDS011;7095;51.388;6.196;2024-01-30T02:58:46;21.47;;;14.60;;
14040;SDS011;7095;51.388;6.196;2024-01-30T03:01:15;21.67;;;13.67;;
14040;SDS011;7095;51.388;6.196;2024-01-30T03:03:44;23.40;;;13.33;;
14040;SDS011;7095;51.388;6.196;2024-01-30T03:06:12;24.97;;;14.37;;
14040;SDS011;7095;51.388;6.196;2024-01-30T03:08:44;25.83;;;14.07;;
14040;SDS011;7095;51.388;6.196;2024-01-30T03:11:12;18.73;;;13.17;;
14040;SDS011;7095;51.388;6.196;2024-01-30T03:13:42;21.93;;;13.50;;
14040;SDS011;7095;51.388;6.196;2024-01-30T03:16:10;20.43;;;13.47;;
14040;SDS011;7095;51.388;6.196;2024-01-30T03:18:39;20.63;;;12.90;;
14040;SDS011;7095;51.388;6.196;2024-01-30T03:21:08;21.60;;;14.03;;
14040;SDS011;7095;51.388;6.196;2024-01-30T03:23:36;20.83;;;13.07;;
14040;SDS011;7095;51.388;6.196;2024-01-30T03:26:05;26.10;;;13.87;;
14040;SDS011;7095;51.388;6.196;2024-01-30T03:28:33;23.10;;;13.60;;
14040;SDS011;7095;51.388;6.196;2024-01-30T03:31:03;23.33;;;13.43;;
14040;SDS011;7095;51.388;6.196;2024-01-30T03:33:32;17.97;;;12.60;;
14040;SDS011;7095;51.388;6.196;2024-01-30T03:36:02;25.17;;;14.33;;
14040;SDS011;7095;51.388;6.196;2024-01-30T03:38:33;20.13;;;12.93;;
14040;SDS011;7095;51.388;6.196;2024-01-30T03:41:01;24.43;;;13.20;;
14040;SDS011;7095;51.388;6.196;2024-01-30T03:43:30;20.57;;;12.67;;
14040;SDS011;7095;51.388;6.196;2024-01-30T03:45:59;20.27;;;12.77;;
14040;SDS011;7095;51.388;6.196;2024-01-30T03:48:30;19.13;;;13.50;;
14040;SDS011;7095;51.388;6.196;2024-01-30T03:50:59;22.23;;;12.50;;
14040;SDS011;7095;51.388;6.196;2024-01-30T03:53:27;20.50;;;12.70;;
14040;SDS011;7095;51.388;6.196;2024-01-30T03:55:56;19.80;;;13.30;;
14040;SDS011;7095;51.388;6.196;2024-01-30T03:58:25;16.50;;;12.57;;
14040;SDS011;7095;51.388;6.196;2024-01-30T04:00:54;19.50;;;12.07;;
14040;SDS011;7095;51.388;6.196;2024-01-30T04:03:23;18.57;;;13.70;;
14040;SDS011;7095;51.388;6.196;2024-01-30T04:05:53;22.37;;;13.23;;
14040;SDS011;7095;51.388;6.196;2024-01-30T04:08:22;24.07;;;13.37;;
14040;SDS011;7095;51.388;6.196;2024-01-30T04:10:51;20.47;;;13.20;;
14040;SDS011;7095;51.388;6.196;2024-01-30T04:13:19;18.60;;;12.70;;
14040;SDS011;7095;51.388;6.196;2024-01-30T04:15:48;17.43;;;11.60;;
14040;SDS011;7095;51.388;6.196;2024-01-30T04:18:16;18.90;;;12.27;;
14040;SDS011;7095;51.388;6.196;2024-01-30T04:20:45;18.07;;;12.43;;
14040;SDS011;7095;51.388;6.196;2024-01-30T04:23:15;15.97;;;11.17;;
14040;SDS011;7095;51.388;6.196;2024-01-30T04:25:43;21.63;;;12.53;;
14040;SDS011;7095;51.388;6.196;2024-01-30T04:28:12;16.73;;;12.23;;
14040;SDS011;7095;51.388;6.196;2024-01-30T04:30:41;22.60;;;12.77;;
14040;SDS011;7095;51.388;6.196;2024-01-30T04:33:10;18.07;;;12.00;;
14040;SDS011;7095;51.388;6.196;2024-01-30T04:35:39;22.60;;;12.80;;
14040;SDS011;7095;51.388;6.196;2024-01-30T04:38:07;20.10;;;11.80;;
14040;SDS011;7095;51.388;6.196;2024-01-30T04:40:37;17.23;;;11.80;;
14040;SDS011;7095;51.388;6.196;2024-01-30T04:43:05;17.50;;;12.10;;
14040;SDS011;7095;51.388;6.196;2024-01-30T04:45:34;18.00;;;12.07;;
14040;SDS011;7095;51.388;6.196;2024-01-30T04:48:02;22.30;;;13.07;;
14040;SDS011;7095;51.388;6.196;2024-01-30T04:50:31;17.37;;;12.47;;
14040;SDS011;7095;51.388;6.196;2024-01-30T04:53:00;20.73;;;12.07;;
14040;SDS011;7095;51.388;6.196;2024-01-30T04:55:28;18.33;;;12.53;;
14040;SDS011;7095;51.388;6.196;2024-01-30T04:57:58;18.53;;;11.80;;
14040;SDS011;7095;51.388;6.196;2024-01-30T05:00:27;24.43;;;12.67;;
14040;SDS011;7095;51.388;6.196;2024-01-30T05:02:55;16.90;;;11.87;;
14040;SDS011;7095;51.388;6.196;2024-01-30T05:05:24;16.13;;;11.77;;
14040;SDS011;7095;51.388;6.196;2024-01-30T05:07:53;18.40;;;13.10;;
14040;SDS011;7095;51.388;6.196;2024-01-30T05:10:21;18.33;;;12.60;;
14040;SDS011;7095;51.388;6.196;2024-01-30T05:12:50;16.73;;;11.73;;
14040;SDS011;7095;51.388;6.196;2024-01-30T05:15:20;23.87;;;14.10;;
14040;SDS011;7095;51.388;6.196;2024-01-30T05:17:48;19.67;;;12.73;;
14040;SDS011;7095;51.388;6.196;2024-01-30T05:20:17;21.10;;;12.37;;
14040;SDS011;7095;51.388;6.196;2024-01-30T05:22:46;20.87;;;12.87;;
14040;SDS011;7095;51.388;6.196;2024-01-30T05:25:15;21.80;;;13.27;;
14040;SDS011;7095;51.388;6.196;2024-01-30T05:27:44;18.30;;;12.40;;
14040;SDS011;7095;51.388;6.196;2024-01-30T05:30:12;17.53;;;13.10;;
14040;SDS011;7095;51.388;6.196;2024-01-30T05:32:44;18.87;;;13.23;;
14040;SDS011;7095;51.388;6.196;2024-01-30T05:35:13;21.73;;;13.20;;
14040;SDS011;7095;51.388;6.196;2024-01-30T05:37:42;17.63;;;12.43;;
14040;SDS011;7095;51.388;6.196;2024-01-30T05:40:10;19.70;;;12.67;;
14040;SDS011;7095;51.388;6.196;2024-01-30T05:42:39;19.57;;;11.73;;
14040;SDS011;7095;51.388;6.196;2024-01-30T05:45:08;19.57;;;12.20;;
14040;SDS011;7095;51.388;6.196;2024-01-30T05:47:37;18.80;;;12.23;;
14040;SDS011;7095;51.388;6.196;2024-01-30T05:50:08;20.37;;;12.93;;
14040;SDS011;7095;51.388;6.196;2024-01-30T05:52:37;19.43;;;11.90;;
14040;SDS011;7095;51.388;6.196;2024-01-30T05:55:05;20.63;;;12.63;;
14040;SDS011;7095;51.388;6.196;2024-01-30T05:57:35;18.80;;;12.77;;
14040;SDS011;7095;51.388;6.196;2024-01-30T06:00:04;21.90;;;12.63;;
14040;SDS011;7095;51.388;6.196;2024-01-30T06:02:34;20.67;;;12.23;;
14040;SDS011;7095;51.388;6.196;2024-01-30T06:05:03;18.27;;;11.80;;
14040;SDS011;7095;51.388;6.196;2024-01-30T06:07:33;18.67;;;11.57;;
14040;SDS011;7095;51.388;6.196;2024-01-30T06:10:03;19.73;;;11.83;;
14040;SDS011;7095;51.388;6.196;2024-01-30T06:12:34;18.10;;;11.90;;
14040;SDS011;7095;51.388;6.196;2024-01-30T06:15:02;15.70;;;12.03;;
14040;SDS011;7095;51.388;6.196;2024-01-30T06:17:32;15.87;;;11.03;;
14040;SDS011;7095;51.388;6.196;2024-01-30T06:20:01;19.07;;;11.40;;
14040;SDS011;7095;51.388;6.196;2024-01-30T06:22:29;16.33;;;11.73;;
14040;SDS011;7095;51.388;6.196;2024-01-30T06:25:00;15.50;;;11.80;;
14040;SDS011;7095;51.388;6.196;2024-01-30T06:27:29;17.40;;;11.83;;
14040;SDS011;7095;51.388;6.196;2024-01-30T06:29:58;17.07;;;11.17;;
14040;SDS011;7095;51.388;6.196;2024-01-30T06:32:27;24.07;;;11.47;;
14040;SDS011;7095;51.388;6.196;2024-01-30T06:35:01;17.70;;;11.77;;
14040;SDS011;7095;51.388;6.196;2024-01-30T06:37:30;18.20;;;12.17;;
14040;SDS011;7095;51.388;6.196;2024-01-30T06:40:00;18.27;;;12.27;;
14040;SDS011;7095;51.388;6.196;2024-01-30T06:42:29;15.30;;;11.93;;
14040;SDS011;7095;51.388;6.196;2024-01-30T06:44:57;18.27;;;12.90;;
14040;SDS011;7095;51.388;6.196;2024-01-30T06:47:26;24.33;;;12.13;;
14040;SDS011;7095;51.388;6.196;2024-01-30T06:49:55;21.63;;;13.10;;
14040;SDS011;7095;51.388;6.196;2024-01-30T06:52:24;22.93;;;12.57;;
14040;SDS011;7095;51.388;6.196;2024-01-30T06:54:52;19.67;;;11.90;;
14040;SDS011;7095;51.388;6.196;2024-01-30T06:57:22;16.63;;;11.57;;
14040;SDS011;7095;51.388;6.196;2024-01-30T06:59:51;18.93;;;12.07;;
14040;SDS011;7095;51.388;6.196;2024-01-30T07:02:20;18.27;;;12.13;;
14040;SDS011;7095;51.388;6.196;2024-01-30T07:04:49;16.23;;;11.87;;
14040;SDS011;7095;51.388;6.196;2024-01-30T07:07:17;13.93;;;11.30;;
14040;SDS011;7095;51.388;6.196;2024-01-30T07:09:46;17.27;;;11.50;;
14040;SDS011;7095;51.388;6.196;2024-01-30T07:12:16;16.53;;;11.40;;
14040;SDS011;7095;51.388;6.196;2024-01-30T07:14:46;16.20;;;11.00;;
14040;SDS011;7095;51.388;6.196;2024-01-30T07:17:15;16.57;;;11.33;;
14040;SDS011;7095;51.388;6.196;2024-01-30T07:19:44;19.20;;;12.93;;
14040;SDS011;7095;51.388;6.196;2024-01-30T07:22:12;17.87;;;10.97;;
14040;SDS011;7095;51.388;6.196;2024-01-30T07:24:42;19.57;;;11.67;;
14040;SDS011;7095;51.388;6.196;2024-01-30T07:27:14;14.00;;;10.80;;
14040;SDS011;7095;51.388;6.196;2024-01-30T07:29:45;20.33;;;11.27;;
14040;SDS011;7095;51.388;6.196;2024-01-30T07:32:15;16.17;;;10.63;;
14040;SDS011;7095;51.388;6.196;2024-01-30T07:34:43;15.33;;;11.33;;
14040;SDS011;7095;51.388;6.196;2024-01-30T07:37:32;20.33;;;11.20;;
14040;SDS011;7095;51.388;6.196;2024-01-30T07:40:01;16.50;;;10.53;;
14040;SDS011;7095;51.388;6.196;2024-01-30T07:42:31;17.07;;;10.90;;
14040;SDS011;7095;51.388;6.196;2024-01-30T07:45:02;15.17;;;10.37;;
14040;SDS011;7095;51.388;6.196;2024-01-30T07:47:31;14.00;;;9.97;;
14040;SDS011;7095;51.388;6.196;2024-01-30T07:50:00;19.93;;;11.03;;
14040;SDS011;7095;51.388;6.196;2024-01-30T07:52:29;17.83;;;9.80;;
14040;SDS011;7095;51.388;6.196;2024-01-30T07:54:58;14.43;;;10.53;;
14040;SDS011;7095;51.388;6.196;2024-01-30T07:57:28;15.03;;;10.80;;
14040;SDS011;7095;51.388;6.196;2024-01-30T07:59:59;14.97;;;10.20;;
14040;SDS011;7095;51.388;6.196;2024-01-30T08:02:34;20.97;;;11.37;;
14040;SDS011;7095;51.388;6.196;2024-01-30T08:05:03;16.53;;;9.77;;
14040;SDS011;7095;51.388;6.196;2024-01-30T08:07:33;15.70;;;10.07;;
14040;SDS011;7095;51.388;6.196;2024-01-30T08:10:04;16.83;;;10.97;;
14040;SDS011;7095;51.388;6.196;2024-01-30T08:12:34;14.73;;;10.40;;
14040;SDS011;7095;51.388;6.196;2024-01-30T08:15:03;16.53;;;10.53;;
14040;SDS011;7095;51.388;6.196;2024-01-30T08:17:34;15.60;;;10.60;;
14040;SDS011;7095;51.388;6.196;2024-01-30T08:20:03;18.70;;;10.30;;
14040;SDS011;7095;51.388;6.196;2024-01-30T08:22:32;13.50;;;10.70;;
14040;SDS011;7095;51.388;6.196;2024-01-30T08:25:01;13.20;;;9.97;;
14040;SDS011;7095;51.388;6.196;2024-01-30T08:27:30;16.93;;;11.60;;
14040;SDS011;7095;51.388;6.196;2024-01-30T08:29:59;15.37;;;11.00;;
14040;SDS011;7095;51.388;6.196;2024-01-30T08:32:28;13.33;;;10.33;;
14040;SDS011;7095;51.388;6.196;2024-01-30T08:34:58;15.33;;;9.93;;
14040;SDS011;7095;51.388;6.196;2024-01-30T08:37:31;13.17;;;10.90;;
14040;SDS011;7095;51.388;6.196;2024-01-30T08:40:00;13.30;;;10.27;;
14040;SDS011;7095;51.388;6.196;2024-01-30T08:42:30;16.23;;;11.27;;
14040;SDS011;7095;51.388;6.196;2024-01-30T08:45:00;14.93;;;10.83;;
14040;SDS011;7095;51.388;6.196;2024-01-30T08:47:30;19.30;;;11.17;;
14040;SDS011;7095;51.388;6.196;2024-01-30T08:50:01;20.60;;;11.30;;
14040;SDS011;7095;51.388;6.196;2024-01-30T08:52:31;15.70;;;11.43;;
14040;SDS011;7095;51.388;6.196;2024-01-30T08:55:01;15.07;;;10.60;;
14040;SDS011;7095;51.388;6.196;2024-01-30T08:57:30;16.47;;;10.63;;
14040;SDS011;7095;51.388;6.196;2024-01-30T08:59:59;15.90;;;10.00;;
14040;SDS011;7095;51.388;6.196;2024-01-30T09:02:30;15.10;;;11.07;;
14040;SDS011;7095;51.388;6.196;2024-01-30T09:05:02;15.73;;;10.70;;
14040;SDS011;7095;51.388;6.196;2024-01-30T09:07:31;12.83;;;10.47;;
14040;SDS011;7095;51.388;6.196;2024-01-30T09:09:59;12.50;;;10.10;;
14040;SDS011;7095;51.388;6.196;2024-01-30T09:12:28;15.87;;;10.87;;
14040;SDS011;7095;51.388;6.196;2024-01-30T09:14:57;15.83;;;10.70;;
14040;SDS011;7095;51.388;6.196;2024-01-30T09:17:27;11.90;;;9.97;;
14040;SDS011;7095;51.388;6.196;2024-01-30T09:19:57;12.70;;;9.43;;
14040;SDS011;7095;51.388;6.196;2024-01-30T09:22:27;14.10;;;9.20;;
14040;SDS011;7095;51.388;6.196;2024-01-30T09:24:56;17.27;;;10.00;;
14040;SDS011;7095;51.388;6.196;2024-01-30T09:27:25;15.07;;;9.93;;
14040;SDS011;7095;51.388;6.196;2024-01-30T09:29:54;10.63;;;8.80;;
14040;SDS011;7095;51.388;6.196;2024-01-30T09:32:23;12.40;;;9.03;;
14040;SDS011;7095;51.388;6.196;2024-01-30T09:34:52;14.27;;;8.80;;
14040;SDS011;7095;51.388;6.196;2024-01-30T09:37:21;14.30;;;8.37;;
14040;SDS011;7095;51.388;6.196;2024-01-30T09:39:54;10.40;;;8.00;;
14040;SDS011;7095;51.388;6.196;2024-01-30T09:42:26;14.57;;;8.43;;
14040;SDS011;7095;51.388;6.196;2024-01-30T09:45:02;11.37;;;7.57;;
14040;SDS011;7095;51.388;6.196;2024-01-30T09:47:32;11.40;;;8.20;;
14040;SDS011;7095;51.388;6.196;2024-01-30T09:50:06;14.77;;;7.50;;
14040;SDS011;7095;51.388;6.196;2024-01-30T09:52:36;10.37;;;8.20;;
14040;SDS011;7095;51.388;6.196;2024-01-30T09:55:07;13.07;;;7.47;;
14040;SDS011;7095;51.388;6.196;2024-01-30T09:57:36;10.70;;;7.70;;
14040;SDS011;7095;51.388;6.196;2024-01-30T10:00:06;13.77;;;7.57;;
14040;SDS011;7095;51.388;6.196;2024-01-30T10:02:39;9.47;;;6.93;;
14040;SDS011;7095;51.388;6.196;2024-01-30T10:05:08;12.63;;;7.97;;
14040;SDS011;7095;51.388;6.196;2024-01-30T10:07:37;15.13;;;7.97;;
14040;SDS011;7095;51.388;6.196;2024-01-30T10:10:08;12.23;;;7.10;;
14040;SDS011;7095;51.388;6.196;2024-01-30T10:12:37;14.50;;;8.03;;
14040;SDS011;7095;51.388;6.196;2024-01-30T10:15:09;10.87;;;7.40;;
14040;SDS011;7095;51.388;6.196;2024-01-30T10:17:38;9.80;;;7.67;;
14040;SDS011;7095;51.388;6.196;2024-01-30T10:20:07;11.90;;;7.50;;
14040;SDS011;7095;51.388;6.196;2024-01-30T10:22:37;12.93;;;7.77;;
14040;SDS011;7095;51.388;6.196;2024-01-30T10:25:09;13.37;;;7.13;;
14040;SDS011;7095;51.388;6.196;2024-01-30T10:27:44;9.77;;;7.23;;
14040;SDS011;7095;51.388;6.196;2024-01-30T10:30:13;14.23;;;6.63;;
14040;SDS011;7095;51.388;6.196;2024-01-30T10:32:43;10.20;;;7.67;;
14040;SDS011;7095;51.388;6.196;2024-01-30T10:35:11;15.10;;;7.67;;
14040;SDS011;7095;51.388;6.196;2024-01-30T10:37:41;11.77;;;7.37;;
14040;SDS011;7095;51.388;6.196;2024-01-30T10:40:14;12.03;;;7.13;;
14040;SDS011;7095;51.388;6.196;2024-01-30T10:42:44;13.83;;;6.90;;
14040;SDS011;7095;51.388;6.196;2024-01-30T10:45:14;11.37;;;7.43;;
14040;SDS011;7095;51.388;6.196;2024-01-30T10:47:43;12.23;;;7.53;;
14040;SDS011;7095;51.388;6.196;2024-01-30T10:50:19;13.23;;;7.50;;
14040;SDS011;7095;51.388;6.196;2024-01-30T10:52:48;13.73;;;7.60;;
14040;SDS011;7095;51.388;6.196;2024-01-30T10:55:19;12.00;;;7.37;;
14040;SDS011;7095;51.388;6.196;2024-01-30T10:57:51;11.97;;;6.97;;
14040;SDS011;7095;51.388;6.196;2024-01-30T11:00:21;13.17;;;8.13;;
14040;SDS011;7095;51.388;6.196;2024-01-30T11:02:51;15.53;;;7.60;;
14040;SDS011;7095;51.388;6.196;2024-01-30T11:05:23;9.17;;;7.17;;
14040;SDS011;7095;51.388;6.196;2024-01-30T11:08:11;17.40;;;7.60;;
14040;SDS011;7095;51.388;6.196;2024-01-30T11:10:45;11.33;;;7.93;;
14040;SDS011;7095;51.388;6.196;2024-01-30T11:13:15;12.17;;;7.53;;
14040;SDS011;7095;51.388;6.196;2024-01-30T11:15:44;14.50;;;7.97;;
14040;SDS011;7095;51.388;6.196;2024-01-30T11:18:22;10.80;;;8.63;;
14040;SDS011;7095;51.388;6.196;2024-01-30T11:20:52;13.73;;;8.23;;
14040;SDS011;7095;51.388;6.196;2024-01-30T11:23:25;12.87;;;8.03;;
14040;SDS011;7095;51.388;6.196;2024-01-30T11:25:56;14.13;;;8.30;;
14040;SDS011;7095;51.388;6.196;2024-01-30T11:28:25;13.10;;;7.80;;
14040;SDS011;7095;51.388;6.196;2024-01-30T11:31:05;15.43;;;8.33;;
14040;SDS011;7095;51.388;6.196;2024-01-30T11:33:35;16.27;;;8.00;;
14040;SDS011;7095;51.388;6.196;2024-01-30T11:36:04;14.50;;;8.47;;
14040;SDS011;7095;51.388;6.196;2024-01-30T11:38:35;18.73;;;8.13;;
14040;SDS011;7095;51.388;6.196;2024-01-30T11:41:05;12.00;;;7.70;;
14040;SDS011;7095;51.388;6.196;2024-01-30T11:43:34;14.33;;;9.47;;
14040;SDS011;7095;51.388;6.196;2024-01-30T11:46:05;11.00;;;8.00;;
14040;SDS011;7095;51.388;6.196;2024-01-30T11:48:34;13.23;;;7.80;;
14040;SDS011;7095;51.388;6.196;2024-01-30T11:51:03;13.47;;;7.57;;
14040;SDS011;7095;51.388;6.196;2024-01-30T11:53:32;14.37;;;8.10;;
14040;SDS011;7095;51.388;6.196;2024-01-30T11:56:01;15.13;;;7.60;;
14040;SDS011;7095;51.388;6.196;2024-01-30T11:58:32;19.23;;;8.50;;
14040;SDS011;7095;51.388;6.196;2024-01-30T12:01:01;13.27;;;8.43;;
14040;SDS011;7095;51.388;6.196;2024-01-30T12:03:30;17.77;;;8.00;;
14040;SDS011;7095;51.388;6.196;2024-01-30T12:05:59;17.53;;;7.73;;
14040;SDS011;7095;51.388;6.196;2024-01-30T12:08:28;13.80;;;7.67;;
14040;SDS011;7095;51.388;6.196;2024-01-30T12:10:57;17.27;;;7.70;;
14040;SDS011;7095;51.388;6.196;2024-01-30T12:13:28;16.67;;;8.37;;
14040;SDS011;7095;51.388;6.196;2024-01-30T12:16:00;10.60;;;7.43;;
14040;SDS011;7095;51.388;6.196;2024-01-30T12:18:29;12.10;;;7.67;;
14040;SDS011;7095;51.388;6.196;2024-01-30T12:21:01;13.17;;;8.23;;
14040;SDS011;7095;51.388;6.196;2024-01-30T12:23:31;17.13;;;8.40;;
14040;SDS011;7095;51.388;6.196;2024-01-30T12:25:59;13.03;;;7.13;;
14040;SDS011;7095;51.388;6.196;2024-01-30T12:28:30;19.40;;;8.53;;
14040;SDS011;7095;51.388;6.196;2024-01-30T12:31:02;17.37;;;8.33;;
14040;SDS011;7095;51.388;6.196;2024-01-30T12:33:32;12.00;;;7.90;;
14040;SDS011;7095;51.388;6.196;2024-01-30T12:36:01;12.80;;;7.93;;
14040;SDS011;7095;51.388;6.196;2024-01-30T12:38:30;16.73;;;7.93;;
14040;SDS011;7095;51.388;6.196;2024-01-30T12:40:59;17.97;;;8.07;;
14040;SDS011;7095;51.388;6.196;2024-01-30T12:43:29;11.60;;;6.97;;
14040;SDS011;7095;51.388;6.196;2024-01-30T12:46:06;14.37;;;6.97;;
14040;SDS011;7095;51.388;6.196;2024-01-30T12:48:35;13.93;;;7.87;;
14040;SDS011;7095;51.388;6.196;2024-01-30T12:51:04;15.43;;;7.83;;
14040;SDS011;7095;51.388;6.196;2024-01-30T12:53:33;15.20;;;8.50;;
14040;SDS011;7095;51.388;6.196;2024-01-30T12:56:02;14.53;;;7.73;;
14040;SDS011;7095;51.388;6.196;2024-01-30T12:58:31;13.50;;;7.97;;
14040;SDS011;7095;51.388;6.196;2024-01-30T13:01:00;13.83;;;7.93;;
14040;SDS011;7095;51.388;6.196;2024-01-30T13:03:31;14.07;;;8.07;;
14040;SDS011;7095;51.388;6.196;2024-01-30T13:06:01;13.50;;;8.00;;
14040;SDS011;7095;51.388;6.196;2024-01-30T13:08:30;10.83;;;7.30;;
14040;SDS011;7095;51.388;6.196;2024-01-30T13:10:59;12.47;;;7.07;;
14040;SDS011;7095;51.388;6.196;2024-01-30T13:13:28;10.80;;;7.73;;
14040;SDS011;7095;51.388;6.196;2024-01-30T13:15:57;14.23;;;7.77;;
14040;SDS011;7095;51.388;6.196;2024-01-30T13:18:25;13.97;;;8.00;;
14040;SDS011;7095;51.388;6.196;2024-01-30T13:20:56;17.73;;;7.60;;
14040;SDS011;7095;51.388;6.196;2024-01-30T13:23:25;13.07;;;7.97;;
14040;SDS011;7095;51.388;6.196;2024-01-30T13:25:54;15.33;;;8.53;;
14040;SDS011;7095;51.388;6.196;2024-01-30T13:28:26;12.37;;;8.17;;
14040;SDS011;7095;51.388;6.196;2024-01-30T13:30:56;13.40;;;7.67;;
14040;SDS011;7095;51.388;6.196;2024-01-30T13:33:26;12.93;;;7.97;;
14040;SDS011;7095;51.388;6.196;2024-01-30T13:35:57;17.27;;;8.90;;
14040;SDS011;7095;51.388;6.196;2024-01-30T13:38:26;18.57;;;8.47;;
14040;SDS011;7095;51.388;6.196;2024-01-30T13:40:55;11.13;;;6.80;;
14040;SDS011;7095;51.388;6.196;2024-01-30T13:43:25;13.23;;;6.33;;
14040;SDS011;7095;51.388;6.196;2024-01-30T13:45:53;17.10;;;5.80;;
14040;SDS011;7095;51.388;6.196;2024-01-30T13:48:23;7.63;;;4.57;;
14040;SDS011;7095;51.388;6.196;2024-01-30T13:50:51;12.33;;;5.10;;
14040;SDS011;7095;51.388;6.196;2024-01-30T13:53:22;10.53;;;5.03;;
14040;SDS011;7095;51.388;6.196;2024-01-30T13:55:51;7.77;;;4.47;;
14040;SDS011;7095;51.388;6.196;2024-01-30T13:58:19;11.93;;;4.17;;
14040;SDS011;7095;51.388;6.196;2024-01-30T14:00:48;8.83;;;4.10;;
14040;SDS011;7095;51.388;6.196;2024-01-30T14:03:17;6.10;;;3.40;;
14040;SDS011;7095;51.388;6.196;2024-01-30T14:05:46;5.47;;;3.30;;
14040;SDS011;7095;51.388;6.196;2024-01-30T14:08:15;5.97;;;3.10;;
14040;SDS011;7095;51.388;6.196;2024-01-30T14:10:46;7.83;;;3.13;;
14040;SDS011;7095;51.388;6.196;2024-01-30T14:13:14;7.00;;;3.50;;
14040;SDS011;7095;51.388;6.196;2024-01-30T14:15:44;7.40;;;2.93;;
14040;SDS011;7095;51.388;6.196;2024-01-30T14:18:12;9.20;;;3.27;;
14040;SDS011;7095;51.388;6.196;2024-01-30T14:20:41;6.27;;;2.97;;
14040;SDS011;7095;51.388;6.196;2024-01-30T14:23:10;8.87;;;3.27;;
14040;SDS011;7095;51.388;6.196;2024-01-30T14:25:38;7.67;;;3.20;;
14040;SDS011;7095;51.388;6.196;2024-01-30T14:28:08;8.33;;;2.40;;
14040;SDS011;7095;51.388;6.196;2024-01-30T14:30:37;4.17;;;2.37;;
14040;SDS011;7095;51.388;6.196;2024-01-30T14:33:06;3.40;;;2.17;;
14040;SDS011;7095;51.388;6.196;2024-01-30T14:35:35;3.97;;;1.90;;
14040;SDS011;7095;51.388;6.196;2024-01-30T14:38:03;4.63;;;1.63;;
14040;SDS011;7095;51.388;6.196;2024-01-30T14:40:34;6.37;;;1.93;;
14040;SDS011;7095;51.388;6.196;2024-01-30T14:43:03;3.83;;;1.40;;
14040;SDS011;7095;51.388;6.196;2024-01-30T14:45:33;4.77;;;1.50;;
14040;SDS011;7095;51.388;6.196;2024-01-30T14:48:02;4.77;;;1.67;;
14040;SDS011;7095;51.388;6.196;2024-01-30T14:50:31;5.67;;;1.60;;
14040;SDS011;7095;51.388;6.196;2024-01-30T14:53:00;5.40;;;1.30;;
14040;SDS011;7095;51.388;6.196;2024-01-30T14:55:29;8.13;;;1.43;;